createdAt,value
2019-05-19T00:01:51.180Z,99.90
2019-05-19T00:04:20.434Z,99.90
2019-05-19T00:06:49.629Z,99.90
2019-05-19T00:09:18.893Z,99.90
2019-05-19T00:11:48.125Z,99.90
2019-05-19T00:14:17.374Z,99.90
2019-05-19T00:16:46.541Z,99.90
2019-05-19T00:19:26.479Z,99.90
2019-05-19T00:21:46.783Z,99.90
2019-05-19T00:24:16.030Z,99.90
2019-05-19T00:26:45.448Z,99.90
2019-05-19T00:29:14.654Z,99.90
2019-05-19T00:31:43.985Z,99.90
2019-05-19T00:34:13.215Z,99.90
2019-05-19T00:36:42.484Z,99.90
2019-05-19T00:39:11.783Z,99.90
2019-05-19T00:41:41.043Z,99.90
2019-05-19T00:44:10.196Z,99.90
2019-05-19T00:46:57.253Z,99.90
2019-05-19T00:49:40.424Z,99.90
2019-05-19T00:51:57.405Z,99.90
2019-05-19T00:54:26.716Z,99.90
2019-05-19T00:56:56.390Z,99.90
2019-05-19T00:59:26.961Z,99.90
2019-05-19T01:01:56.212Z,99.90
2019-05-19T01:04:25.442Z,99.90
2019-05-19T01:06:54.620Z,99.90
2019-05-19T01:09:23.769Z,99.90
2019-05-19T01:11:53.028Z,99.90
2019-05-19T01:14:22.257Z,99.90
2019-05-19T01:16:51.458Z,99.90
2019-05-19T01:19:20.887Z,99.90
2019-05-19T01:21:50.268Z,99.90
2019-05-19T01:24:19.420Z,99.90
2019-05-19T01:26:48.611Z,99.90
2019-05-19T01:29:17.754Z,99.90
2019-05-19T01:31:47.018Z,99.90
2019-05-19T01:34:16.171Z,99.90
2019-05-19T01:36:45.346Z,99.90
2019-05-19T01:39:14.491Z,99.90
2019-05-19T01:41:43.686Z,99.90
2019-05-19T01:44:12.993Z,99.90
2019-05-19T01:46:42.167Z,99.90
2019-05-19T01:49:11.333Z,99.90
2019-05-19T01:51:40.588Z,99.90
2019-05-19T01:54:09.742Z,99.90
2019-05-19T01:56:38.924Z,99.90
2019-05-19T01:59:08.171Z,99.90
2019-05-19T02:01:37.437Z,99.90
2019-05-19T02:04:06.600Z,99.90
2019-05-19T02:06:35.856Z,99.90
2019-05-19T02:09:07.167Z,99.90
2019-05-19T02:11:36.359Z,99.90
2019-05-19T02:14:06.008Z,99.90
2019-05-19T02:16:35.184Z,99.90
2019-05-19T02:19:04.472Z,99.90
2019-05-19T02:21:33.856Z,99.90
2019-05-19T02:24:03.113Z,99.90
2019-05-19T02:26:32.444Z,99.90
2019-05-19T02:29:01.671Z,99.90
2019-05-19T02:31:30.854Z,99.90
2019-05-19T02:34:00.121Z,99.90
2019-05-19T02:36:29.371Z,99.90
2019-05-19T02:38:58.558Z,99.90
2019-05-19T02:41:28.174Z,99.90
2019-05-19T02:43:58.247Z,99.90
2019-05-19T02:46:29.020Z,99.90
2019-05-19T02:48:59.874Z,99.90
2019-05-19T02:51:31.236Z,99.90
2019-05-19T02:54:02.188Z,99.90
2019-05-19T02:56:31.815Z,99.90
2019-05-19T02:59:01.413Z,99.90
2019-05-19T03:01:30.641Z,99.90
2019-05-19T03:03:59.811Z,99.90
2019-05-19T03:06:29.066Z,99.90
2019-05-19T03:08:58.342Z,99.90
2019-05-19T03:11:27.563Z,99.90
2019-05-19T03:13:56.752Z,99.90
2019-05-19T03:16:26.043Z,99.90
2019-05-19T03:18:55.255Z,99.90
2019-05-19T03:21:24.473Z,99.90
2019-05-19T03:23:53.657Z,99.90
2019-05-19T03:26:22.812Z,99.90
2019-05-19T03:28:52.070Z,99.90
2019-05-19T03:31:28.217Z,99.90
2019-05-19T03:33:57.980Z,99.90
2019-05-19T03:36:27.216Z,99.90
2019-05-19T03:38:56.407Z,99.90
2019-05-19T03:41:25.647Z,99.90
2019-05-19T03:43:54.903Z,99.90
2019-05-19T03:46:24.077Z,99.90
2019-05-19T03:48:53.338Z,99.90
2019-05-19T03:51:30.626Z,99.90
2019-05-19T03:53:53.478Z,99.90
2019-05-19T03:56:22.721Z,99.90
2019-05-19T03:58:51.956Z,99.90
2019-05-19T04:01:21.280Z,99.90
2019-05-19T04:03:50.589Z,99.90
2019-05-19T04:06:19.908Z,99.90
2019-05-19T04:08:49.348Z,99.90
2019-05-19T04:11:18.494Z,99.90
2019-05-19T04:13:47.766Z,99.90
2019-05-19T04:16:16.929Z,99.90
2019-05-19T04:18:46.127Z,99.90
2019-05-19T04:21:15.368Z,99.90
2019-05-19T04:23:44.648Z,99.90
2019-05-19T04:26:13.936Z,99.90
2019-05-19T04:28:43.092Z,99.90
2019-05-19T04:31:12.276Z,99.90
2019-05-19T04:33:41.506Z,99.90
2019-05-19T04:36:10.842Z,99.90
2019-05-19T04:38:40.072Z,99.90
2019-05-19T04:41:09.246Z,99.90
2019-05-19T04:43:38.477Z,99.90
2019-05-19T04:46:07.746Z,99.90
2019-05-19T04:48:37.039Z,99.90
2019-05-19T04:51:06.486Z,99.90
2019-05-19T04:53:35.793Z,99.90
2019-05-19T04:56:04.970Z,99.90
2019-05-19T04:58:34.136Z,99.90
2019-05-19T05:01:03.410Z,99.90
2019-05-19T05:03:32.553Z,99.90
2019-05-19T05:06:01.727Z,99.90
2019-05-19T05:08:31.056Z,99.90
2019-05-19T05:11:00.347Z,99.90
2019-05-19T05:13:29.502Z,99.90
2019-05-19T05:15:58.679Z,99.90
2019-05-19T05:18:27.889Z,99.90
2019-05-19T05:20:57.122Z,99.90
2019-05-19T05:23:26.352Z,99.90
2019-05-19T05:25:55.603Z,99.90
2019-05-19T05:28:25.566Z,99.90
2019-05-19T05:30:54.909Z,99.90
2019-05-19T05:33:24.051Z,99.90
2019-05-19T05:35:53.235Z,99.90
2019-05-19T05:38:22.564Z,99.90
2019-05-19T05:40:51.815Z,99.90
2019-05-19T05:43:21.102Z,99.90
2019-05-19T05:45:50.467Z,99.90
2019-05-19T05:48:19.655Z,99.90
2019-05-19T05:50:48.854Z,99.90
2019-05-19T05:53:18.471Z,99.90
2019-05-19T05:55:47.714Z,99.90
2019-05-19T05:58:16.978Z,99.90
2019-05-19T06:00:46.309Z,99.90
2019-05-19T06:03:15.563Z,99.90
2019-05-19T06:05:44.835Z,99.90
2019-05-19T06:08:14.084Z,99.90
2019-05-19T06:10:43.319Z,99.90
2019-05-19T06:13:12.574Z,99.90
2019-05-19T06:15:41.736Z,99.90
2019-05-19T06:18:11.015Z,99.90
2019-05-19T06:20:40.241Z,99.90
2019-05-19T06:23:09.641Z,99.90
2019-05-19T06:25:38.816Z,99.90
2019-05-19T06:28:08.003Z,99.90
2019-05-19T06:30:37.234Z,99.90
2019-05-19T06:33:06.515Z,99.90
2019-05-19T06:35:35.753Z,99.90
2019-05-19T06:38:05.048Z,99.90
2019-05-19T06:40:34.208Z,99.90
2019-05-19T06:43:03.562Z,99.90
2019-05-19T06:45:32.921Z,99.90
2019-05-19T06:48:02.179Z,99.90
2019-05-19T06:50:31.417Z,99.90
2019-05-19T06:53:13.313Z,99.90
2019-05-19T06:55:31.805Z,99.90
2019-05-19T06:58:01.030Z,99.90
2019-05-19T07:00:30.272Z,99.90
2019-05-19T07:02:59.457Z,99.90
2019-05-19T07:05:28.722Z,99.90
2019-05-19T07:07:58.483Z,99.90
2019-05-19T07:10:27.702Z,99.90
2019-05-19T07:12:57.127Z,99.90
2019-05-19T07:15:26.623Z,99.90
2019-05-19T07:17:55.916Z,99.90
2019-05-19T07:20:25.229Z,99.80
2019-05-19T07:22:54.591Z,98.20
2019-05-19T07:25:24.232Z,97.70
2019-05-19T07:27:53.770Z,96.20
2019-05-19T07:30:23.268Z,93.90
2019-05-19T07:32:52.432Z,94.00
2019-05-19T07:35:22.103Z,93.50
2019-05-19T07:37:51.593Z,92.20
2019-05-19T07:40:20.934Z,90.70
2019-05-19T07:42:50.163Z,90.60
2019-05-19T07:45:20.056Z,90.50
2019-05-19T07:47:49.211Z,90.10
2019-05-19T07:50:18.405Z,90.00
2019-05-19T07:52:47.905Z,86.70
2019-05-19T07:55:17.841Z,85.80
2019-05-19T07:57:46.988Z,85.00
2019-05-19T08:00:16.458Z,85.30
2019-05-19T08:02:45.608Z,82.40
2019-05-19T08:05:14.924Z,86.70
2019-05-19T08:07:44.151Z,85.20
2019-05-19T08:10:13.415Z,88.80
2019-05-19T08:12:42.598Z,86.90
2019-05-19T08:15:12.211Z,89.50
2019-05-19T08:17:41.727Z,89.80
2019-05-19T08:20:12.723Z,90.10
2019-05-19T08:22:41.970Z,90.70
2019-05-19T08:25:11.347Z,90.40
2019-05-19T08:27:40.588Z,88.70
2019-05-19T08:30:10.260Z,88.40
2019-05-19T08:32:39.509Z,89.70
2019-05-19T08:35:09.398Z,91.00
2019-05-19T08:37:39.063Z,90.60
2019-05-19T08:40:08.768Z,88.20
2019-05-19T08:42:38.214Z,89.50
2019-05-19T08:45:08.359Z,89.30
2019-05-19T08:47:37.641Z,91.30
2019-05-19T08:50:07.139Z,89.10
2019-05-19T08:52:36.416Z,90.80
2019-05-19T08:55:05.736Z,87.90
2019-05-19T08:57:35.101Z,88.00
2019-05-19T09:00:04.943Z,88.30
2019-05-19T09:02:34.231Z,85.00
2019-05-19T09:05:03.618Z,87.80
2019-05-19T09:07:32.859Z,87.70
2019-05-19T09:10:02.136Z,87.60
2019-05-19T09:12:31.600Z,89.40
2019-05-19T09:15:00.921Z,87.20
2019-05-19T09:17:30.239Z,83.80
2019-05-19T09:19:59.400Z,82.80
2019-05-19T09:22:28.663Z,84.10
2019-05-19T09:24:57.899Z,81.60
2019-05-19T09:27:27.118Z,83.30
2019-05-19T09:29:56.354Z,81.00
2019-05-19T09:32:25.626Z,80.40
2019-05-19T09:34:54.786Z,82.30
2019-05-19T09:37:23.968Z,83.00
2019-05-19T09:39:53.131Z,83.90
2019-05-19T09:42:22.328Z,84.10
2019-05-19T09:44:51.615Z,84.70
2019-05-19T09:47:20.871Z,83.40
2019-05-19T09:49:50.040Z,81.20
2019-05-19T09:52:19.366Z,82.90
2019-05-19T09:54:48.672Z,82.50
2019-05-19T09:57:17.900Z,83.80
2019-05-19T09:59:47.085Z,85.30
2019-05-19T10:02:16.272Z,84.30
2019-05-19T10:04:45.525Z,82.90
2019-05-19T10:07:14.975Z,83.40
2019-05-19T10:10:08.183Z,86.70
2019-05-19T10:12:37.519Z,81.80
2019-05-19T10:15:07.744Z,83.80
2019-05-19T10:17:37.032Z,86.40
2019-05-19T10:20:08.133Z,81.90
2019-05-19T10:22:37.440Z,79.20
2019-05-19T10:25:21.115Z,80.30
2019-05-19T10:27:38.795Z,78.90
2019-05-19T10:30:08.598Z,80.40
2019-05-19T10:32:37.868Z,80.10
2019-05-19T10:35:07.506Z,80.40
2019-05-19T10:37:36.904Z,80.30
2019-05-19T10:40:07.062Z,81.60
2019-05-19T10:42:36.283Z,78.30
2019-05-19T10:45:07.055Z,77.30
2019-05-19T10:47:36.308Z,78.30
2019-05-19T10:50:05.699Z,78.30
2019-05-19T10:52:34.867Z,77.60
2019-05-19T10:55:04.539Z,76.60
2019-05-19T10:57:33.704Z,75.00
2019-05-19T11:00:03.060Z,73.30
2019-05-19T11:02:32.220Z,74.70
2019-05-19T11:05:01.476Z,75.20
2019-05-19T11:07:30.709Z,74.40
2019-05-19T11:09:59.959Z,69.50
2019-05-19T11:12:29.114Z,66.00
2019-05-19T11:14:58.299Z,64.90
2019-05-19T11:17:27.639Z,66.20
2019-05-19T11:19:56.827Z,67.70
2019-05-19T11:22:26.051Z,66.90
2019-05-19T11:24:55.242Z,68.60
2019-05-19T11:27:24.395Z,71.10
2019-05-19T11:29:53.580Z,70.70
2019-05-19T11:32:22.818Z,69.10
2019-05-19T11:34:52.042Z,70.40
2019-05-19T11:37:21.237Z,68.20
2019-05-19T11:39:50.427Z,66.20
2019-05-19T11:42:19.587Z,65.00
2019-05-19T11:44:48.763Z,62.90
2019-05-19T11:47:17.921Z,66.10
2019-05-19T11:49:47.238Z,66.00
2019-05-19T11:52:16.464Z,63.20
2019-05-19T11:54:45.794Z,59.60
2019-05-19T11:57:15.028Z,59.80
2019-05-19T11:59:44.206Z,63.10
2019-05-19T12:02:13.463Z,62.40
2019-05-19T12:04:42.644Z,66.90
2019-05-19T12:07:11.826Z,65.20
2019-05-19T12:09:41.015Z,63.50
2019-05-19T12:12:10.241Z,62.90
2019-05-19T12:14:39.431Z,59.00
2019-05-19T12:17:08.866Z,55.50
2019-05-19T12:19:38.173Z,57.20
2019-05-19T12:22:07.379Z,57.60
2019-05-19T12:24:36.675Z,59.40
2019-05-19T12:27:05.915Z,60.20
2019-05-19T12:29:35.204Z,61.30
2019-05-19T12:32:04.515Z,60.70
2019-05-19T12:34:33.680Z,61.70
2019-05-19T12:37:03.667Z,65.50
2019-05-19T12:39:32.815Z,59.10
2019-05-19T12:42:02.001Z,59.00
2019-05-19T12:44:31.239Z,58.70
2019-05-19T12:47:00.491Z,56.50
2019-05-19T12:49:29.694Z,58.00
2019-05-19T12:51:59.045Z,58.40
2019-05-19T12:54:28.333Z,57.00
2019-05-19T12:56:58.406Z,54.10
2019-05-19T12:59:27.559Z,58.00
2019-05-19T13:01:56.736Z,56.80
2019-05-19T13:04:25.954Z,56.20
2019-05-19T13:06:55.175Z,55.70
2019-05-19T13:09:24.420Z,52.70
2019-05-19T13:11:53.608Z,54.10
2019-05-19T13:14:22.759Z,53.50
2019-05-19T13:16:52.121Z,54.00
2019-05-19T13:19:21.685Z,52.50
2019-05-19T13:21:50.975Z,55.00
2019-05-19T13:24:20.361Z,55.30
2019-05-19T13:26:56.603Z,56.40
2019-05-19T13:29:20.785Z,56.80
2019-05-19T13:31:50.063Z,57.40
2019-05-19T13:34:19.639Z,57.20
2019-05-19T13:36:48.820Z,58.10
2019-05-19T13:39:18.139Z,55.20
2019-05-19T13:41:47.416Z,57.40
2019-05-19T13:44:16.724Z,55.10
2019-05-19T13:46:45.980Z,57.30
2019-05-19T13:49:15.134Z,55.20
2019-05-19T13:51:44.319Z,55.40
2019-05-19T13:54:13.551Z,54.90
2019-05-19T13:56:42.808Z,53.60
2019-05-19T13:59:12.030Z,51.80
2019-05-19T14:01:41.247Z,55.50
2019-05-19T14:04:10.494Z,54.20
2019-05-19T14:06:39.697Z,57.20
2019-05-19T14:09:09.312Z,56.20
2019-05-19T14:11:38.582Z,56.00
2019-05-19T14:14:07.848Z,57.00
2019-05-19T14:16:37.075Z,58.30
2019-05-19T14:19:06.329Z,57.90
2019-05-19T14:21:35.656Z,59.20
2019-05-19T14:24:05.035Z,60.30
2019-05-19T14:26:34.273Z,60.40
2019-05-19T14:29:03.538Z,60.40
2019-05-19T14:31:32.965Z,59.80
2019-05-19T14:34:02.187Z,59.10
2019-05-19T14:36:31.431Z,59.40
2019-05-19T14:39:05.344Z,59.80
2019-05-19T14:41:35.392Z,59.60
2019-05-19T14:44:05.228Z,59.90
2019-05-19T14:46:34.576Z,58.90
2019-05-19T14:49:03.751Z,59.50
2019-05-19T14:51:33.001Z,59.70
2019-05-19T14:54:02.372Z,60.60
2019-05-19T14:56:33.664Z,65.40
2019-05-19T14:59:02.745Z,68.80
2019-05-19T15:01:32.011Z,70.40
2019-05-19T15:04:01.323Z,71.60
2019-05-19T15:06:30.570Z,73.20
2019-05-19T15:09:00.014Z,74.40
2019-05-19T15:11:29.292Z,74.60
2019-05-19T15:13:58.678Z,75.40
2019-05-19T15:16:27.828Z,75.30
2019-05-19T15:18:57.124Z,76.40
2019-05-19T15:21:27.549Z,78.40
2019-05-19T15:23:56.863Z,77.50
2019-05-19T15:26:26.100Z,77.00
2019-05-19T15:28:55.286Z,75.70
2019-05-19T15:31:24.433Z,77.30
2019-05-19T15:33:53.769Z,77.90
2019-05-19T15:36:23.120Z,79.80
2019-05-19T15:38:52.316Z,79.00
2019-05-19T15:41:21.676Z,77.00
2019-05-19T15:43:50.906Z,77.40
2019-05-19T15:46:20.152Z,76.90
2019-05-19T15:48:49.336Z,74.20
2019-05-19T15:51:27.910Z,77.80
2019-05-19T15:53:49.552Z,81.30
2019-05-19T15:56:18.793Z,82.40
2019-05-19T15:58:48.294Z,83.60
2019-05-19T16:01:17.449Z,84.30
2019-05-19T16:03:46.834Z,86.90
2019-05-19T16:06:16.006Z,87.20
2019-05-19T16:08:45.323Z,89.60
2019-05-19T16:11:14.532Z,91.00
2019-05-19T16:13:43.753Z,91.50
2019-05-19T16:16:13.028Z,92.40
2019-05-19T16:18:42.343Z,92.50
2019-05-19T16:21:11.580Z,94.00
2019-05-19T16:23:40.824Z,93.30
2019-05-19T16:26:10.082Z,93.50
2019-05-19T16:28:39.408Z,93.80
2019-05-19T16:31:08.754Z,94.40
2019-05-19T16:33:37.922Z,94.60
2019-05-19T16:36:08.046Z,95.90
2019-05-19T16:38:37.451Z,97.00
2019-05-19T16:41:06.711Z,97.80
2019-05-19T16:43:35.885Z,97.80
2019-05-19T16:46:05.087Z,98.50
2019-05-19T16:48:34.399Z,97.80
2019-05-19T16:51:03.767Z,98.90
2019-05-19T16:53:33.088Z,99.90
2019-05-19T16:56:02.459Z,99.90
2019-05-19T16:58:44.422Z,99.90
2019-05-19T17:01:02.769Z,99.90
2019-05-19T17:03:31.956Z,99.90
2019-05-19T17:06:01.134Z,99.90
2019-05-19T17:08:30.354Z,99.90
2019-05-19T17:10:59.665Z,99.90
2019-05-19T17:13:28.887Z,99.90
2019-05-19T17:15:58.602Z,99.90
2019-05-19T17:18:27.863Z,99.90
2019-05-19T17:20:57.057Z,99.90
2019-05-19T17:23:26.236Z,99.90
2019-05-19T17:25:55.487Z,99.90
2019-05-19T17:28:24.726Z,99.90
2019-05-19T17:30:54.062Z,99.90
2019-05-19T17:33:23.356Z,99.90
2019-05-19T17:35:52.568Z,99.90
2019-05-19T17:38:21.731Z,99.90
2019-05-19T17:40:51.114Z,99.90
2019-05-19T17:43:20.394Z,99.90
2019-05-19T17:45:49.574Z,99.90
2019-05-19T17:48:25.961Z,99.90
2019-05-19T17:50:49.664Z,99.90
2019-05-19T17:53:18.827Z,99.90
2019-05-19T17:55:49.889Z,99.90
2019-05-19T17:58:19.939Z,99.90
2019-05-19T18:00:49.271Z,99.90
2019-05-19T18:03:18.596Z,99.90
2019-05-19T18:05:47.827Z,99.90
2019-05-19T18:08:17.017Z,99.90
2019-05-19T18:10:46.170Z,99.90
2019-05-19T18:13:15.434Z,99.90
2019-05-19T18:15:44.603Z,99.90
2019-05-19T18:18:13.829Z,99.90
2019-05-19T18:20:42.984Z,99.90
2019-05-19T18:23:12.208Z,99.90
2019-05-19T18:25:41.444Z,99.90
2019-05-19T18:28:10.720Z,99.90
2019-05-19T18:30:40.055Z,99.90
2019-05-19T18:33:09.323Z,99.90
2019-05-19T18:35:38.663Z,99.90
2019-05-19T18:38:07.884Z,99.90
2019-05-19T18:40:37.128Z,99.90
2019-05-19T18:43:06.386Z,99.90
2019-05-19T18:45:35.577Z,99.90
2019-05-19T18:48:04.831Z,99.90
2019-05-19T18:50:34.074Z,99.90
2019-05-19T18:53:03.369Z,99.90
2019-05-19T18:55:32.580Z,99.90
2019-05-19T18:58:01.789Z,99.90
2019-05-19T19:00:36.184Z,99.90
2019-05-19T19:03:06.120Z,99.90
2019-05-19T19:05:35.296Z,99.90
2019-05-19T19:08:04.630Z,99.90
2019-05-19T19:10:33.860Z,99.90
2019-05-19T19:13:03.128Z,99.90
2019-05-19T19:15:32.354Z,99.90
2019-05-19T19:18:01.570Z,99.90
2019-05-19T19:20:30.724Z,99.90
2019-05-19T19:22:59.906Z,99.90
2019-05-19T19:25:29.340Z,99.90
2019-05-19T19:27:58.522Z,99.90
2019-05-19T19:30:27.683Z,99.90
2019-05-19T19:32:56.867Z,99.90
2019-05-19T19:35:26.120Z,99.90
2019-05-19T19:37:55.398Z,99.90
2019-05-19T19:40:31.325Z,99.90
2019-05-19T19:43:01.063Z,99.90
2019-05-19T19:45:30.807Z,99.90
2019-05-19T19:48:00.058Z,99.90
2019-05-19T19:50:29.312Z,99.90
2019-05-19T19:52:58.788Z,99.90
2019-05-19T19:55:28.146Z,99.90
2019-05-19T19:57:57.396Z,99.90
2019-05-19T20:00:43.390Z,99.90
2019-05-19T20:03:12.947Z,99.90
2019-05-19T20:05:42.475Z,99.90
2019-05-19T20:08:11.676Z,99.90
2019-05-19T20:10:40.994Z,99.90
2019-05-19T20:13:10.163Z,99.90
2019-05-19T20:15:39.443Z,99.90
2019-05-19T20:18:08.705Z,99.90
2019-05-19T20:20:38.043Z,99.90
2019-05-19T20:23:07.305Z,99.90
2019-05-19T20:25:37.326Z,99.90
2019-05-19T20:28:06.946Z,99.90
2019-05-19T20:30:36.863Z,99.90
2019-05-19T20:33:06.441Z,99.90
2019-05-19T20:35:35.801Z,99.90
2019-05-19T20:38:05.148Z,99.90
2019-05-19T20:40:34.328Z,99.90
2019-05-19T20:43:03.589Z,99.90
2019-05-19T20:45:33.095Z,99.90
2019-05-19T20:48:02.575Z,99.90
2019-05-19T20:50:31.823Z,99.90
2019-05-19T20:53:01.060Z,99.90
2019-05-19T20:55:30.314Z,99.90
2019-05-19T20:57:59.634Z,99.90
2019-05-19T21:00:28.901Z,99.90
2019-05-19T21:02:58.135Z,99.90
2019-05-19T21:05:27.795Z,99.90
2019-05-19T21:07:56.952Z,99.90
2019-05-19T21:10:26.203Z,99.90
2019-05-19T21:12:57.453Z,99.90
2019-05-19T21:15:26.285Z,99.90
2019-05-19T21:17:55.544Z,99.90
2019-05-19T21:20:24.822Z,99.90
2019-05-19T21:22:54.118Z,99.90
2019-05-19T21:25:23.406Z,99.90
2019-05-19T21:27:52.708Z,99.90
2019-05-19T21:30:21.967Z,99.90
2019-05-19T21:32:51.140Z,99.90
2019-05-19T21:35:20.321Z,99.90
2019-05-19T21:37:49.480Z,99.90
2019-05-19T21:40:18.743Z,99.90
2019-05-19T21:42:47.903Z,99.90
2019-05-19T21:45:17.086Z,99.90
2019-05-19T21:47:46.395Z,99.90
2019-05-19T21:50:15.680Z,99.90
2019-05-19T21:52:45.006Z,99.90
2019-05-19T21:55:14.336Z,99.90
2019-05-19T21:57:43.565Z,99.90
2019-05-19T22:00:13.806Z,99.90
2019-05-19T22:02:42.962Z,99.90
2019-05-19T22:05:13.008Z,99.90
2019-05-19T22:08:01.230Z,99.90
2019-05-19T22:10:30.584Z,99.90
2019-05-19T22:12:59.833Z,99.90
2019-05-19T22:15:29.098Z,99.90
2019-05-19T22:17:58.342Z,99.90
2019-05-19T22:20:27.644Z,99.90
2019-05-19T22:22:56.860Z,99.90
2019-05-19T22:25:26.022Z,99.90
2019-05-19T22:27:55.271Z,99.90
2019-05-19T22:30:24.516Z,99.90
2019-05-19T22:32:53.704Z,99.90
2019-05-19T22:35:22.860Z,99.90
2019-05-19T22:37:52.051Z,99.90
2019-05-19T22:40:21.338Z,99.90
2019-05-19T22:42:50.664Z,99.90
2019-05-19T22:45:19.977Z,99.90
2019-05-19T22:47:49.162Z,99.90
2019-05-19T22:50:18.328Z,99.90
2019-05-19T22:52:47.659Z,99.90
2019-05-19T22:55:17.049Z,99.90
2019-05-19T22:57:46.245Z,99.90
2019-05-19T23:00:16.302Z,99.90
2019-05-19T23:02:45.554Z,99.90
2019-05-19T23:05:15.252Z,99.90
2019-05-19T23:07:44.592Z,99.90
2019-05-19T23:10:14.147Z,99.90
2019-05-19T23:12:43.344Z,99.90
2019-05-19T23:15:13.572Z,99.90
2019-05-19T23:17:42.841Z,99.90
2019-05-19T23:20:12.879Z,99.90
2019-05-19T23:22:42.151Z,99.90
2019-05-19T23:25:11.473Z,99.90
2019-05-19T23:27:40.651Z,99.90
2019-05-19T23:30:10.264Z,99.90
2019-05-19T23:32:39.483Z,99.90
2019-05-19T23:35:09.040Z,99.90
2019-05-19T23:37:38.295Z,99.90
2019-05-19T23:40:08.386Z,99.90
2019-05-19T23:42:37.668Z,99.90
2019-05-19T23:45:07.294Z,99.90
2019-05-19T23:47:36.541Z,99.90
2019-05-19T23:50:06.002Z,99.90
2019-05-19T23:52:35.194Z,99.90
2019-05-19T23:55:04.719Z,99.90
2019-05-19T23:57:33.945Z,99.90
